Alessandro F — IBVQ — position and weather

sailwx.info

Track history (hours):
 
Tides and Currents Weather Stations Pressure Air Temp Water Temp Dewpoint Dewpoint Depression Visibility Wind Speed Wind Dir Waves Ship Positions

Alessandro F

Last reported at 2014-Oct-26 18:14 UTC. Time now 2014-Nov-22 23:57 UTC.
Position N 36°60' E 013°55'.
Warning: this ship's position is 27 days out of date.

Length 100 m; draft 6.2 m.

Type: Ship (hazmat cat B). MMSI: 247046400.

Date/timePositionNaut miles runAvg speedWind from/ knotsBaromVisibWave heightAir tempDewpointWater temp
2014-Oct-26 18:14N 36°60' E 013°55'710.3
2014-Oct-26 17:33N 37°02' E 013°46'  
2014-Oct-21 06:15N 37°03' E 002°51'913.3
2014-Oct-21 05:33N 37°01' E 002°39'1312.9
2014-Oct-21 04:31N 36°58' E 002°23'1212.9
2014-Oct-21 03:33N 36°54' E 002°08'1413.7
2014-Oct-21 02:33N 36°53' E 001°51'1413.8
2014-Oct-21 01:34N 36°49' E 001°34'1812.9
2014-Oct-21 00:08N 36°44' E 001°12'812.9
2014-Oct-20 23:32N 36°42' E 001°03'2713.5
2014-Oct-20 21:33N 36°33' E 000°32'4013.3
2014-Oct-20 18:33N 36°18' W 000°14'1413.1
2014-Oct-20 17:29N 36°13' W 000°31'1213.1
2014-Oct-20 16:33N 36°09' W 000°44'  
Track history (hours):
 
Tides and Currents Weather Stations Pressure Air Temp Water Temp Dewpoint Dewpoint Depression Visibility Wind Speed Wind Dir Waves Ship Positions

Alessandro F

Last reported at 2014-Oct-26 18:14 UTC. Time now 2014-Nov-22 23:57 UTC.
Position N 36°60' E 013°55'.
Warning: this ship's position is 27 days out of date.

Length 100 m; draft 6.2 m.

Type: Ship (hazmat cat B). MMSI: 247046400.

Date/timePositionNaut miles runAvg speedWind from/ knotsBaromVisibWave heightAir tempDewpointWater temp
2014-Oct-26 18:14N 36°60' E 013°55'710.3
2014-Oct-26 17:33N 37°02' E 013°46'  
2014-Oct-21 06:15N 37°03' E 002°51'913.3
2014-Oct-21 05:33N 37°01' E 002°39'1312.9
2014-Oct-21 04:31N 36°58' E 002°23'1212.9
2014-Oct-21 03:33N 36°54' E 002°08'1413.7
2014-Oct-21 02:33N 36°53' E 001°51'1413.8
2014-Oct-21 01:34N 36°49' E 001°34'1812.9
2014-Oct-21 00:08N 36°44' E 001°12'812.9
2014-Oct-20 23:32N 36°42' E 001°03'2713.5
2014-Oct-20 21:33N 36°33' E 000°32'4013.3
2014-Oct-20 18:33N 36°18' W 000°14'1413.1
2014-Oct-20 17:29N 36°13' W 000°31'1213.1
2014-Oct-20 16:33N 36°09' W 000°44'  

Dump ship's entire track history